San Benito, Argentina
Current Conditions -  °F | °C
As of 4:00 PM on Thursday 27 Nov 2014 (Local Time) from SAAR Reporting Station
Clear Clear  
Wind Chill: 30°   Ceiling: Unl
Heat Index: 30°   Visibility: 6mi
Dew Point:   Wind: 8mph
Humidity: 22%   Direction: 70°ENE
Pressure: 29.91"   Gusts: NA
Location:  31.78°S, 60.43°W
Report Text: SAAR 271900Z 07007KT CAVOK 30/06 Q1013
Loading
Personal Weather Stations






























Interactive Weather Map New forecast layout! Learn more

10-Day Weather Forecast

Advertisements
Track Severe Weather on mobile